Time;durP1;ratioP1;P1;durP2;ratioP2;P2;SDS_P1;SDS_P2;PMS_P1;PMS_P2;Temp;Humidity;BMP_temperature;BMP_pressure;BME280_temperature;BME280_humidity;BME280_pressure;Samples;Min_cycle;Max_cycle;Signal;HPM_P1;HPM_P2
2022/06/09 00:02:22;;;;;;;7.28;3.28;;;;;;;;;;5110840;28;20027;-66
2022/06/09 00:06:13;;;;;;;5.20;2.88;;;;;;;;;;5111188;27;20385;-65
2022/06/09 00:08:41;;;;;;;7.63;3.78;;;;;;;;;;5110735;28;20034;-65
2022/06/09 00:11:39;;;;;;;6.03;3.13;;;;;;;;;;5111299;27;20560;-65
2022/06/09 00:14:06;;;;;;;5.70;3.10;;;;;;;;;;5126766;28;20043;-65
2022/06/09 00:16:33;;;;;;;6.47;3.30;;;;;;;;;;5110575;28;20020;-65
2022/06/09 00:23:56;;;;;;;6.75;3.95;;;;;;;;;;5110824;27;20528;-65
2022/06/09 00:26:22;;;;;;;6.15;3.70;;;;;;;;;;5110947;28;20108;-65
2022/06/09 00:28:48;;;;;;;8.13;3.63;;;;;;;;;;5110900;28;20058;-65
2022/06/09 00:31:35;;;;;;;6.93;3.63;;;;;;;;;;5110677;27;20389;-65
2022/06/09 00:35:28;;;;;;;7.57;3.40;;;;;;;;;;5111389;27;20415;-65
2022/06/09 00:39:38;;;;;;;5.55;2.70;;;;;;;;;;5070441;28;20915;-64
2022/06/09 00:44:27;;;;;;;6.93;3.17;;;;;;;;;;5111110;27;20381;-64
2022/06/09 00:46:57;;;;;;;5.32;3.13;;;;;;;;;;5111024;28;20472;-64
2022/06/09 00:52:28;;;;;;;6.45;2.97;;;;;;;;;;5110880;27;20422;-65
2022/06/09 00:55:44;;;;;;;5.13;2.83;;;;;;;;;;5173558;27;20106;-65
2022/06/09 01:01:26;;;;;;;4.57;2.55;;;;;;;;;;5111176;27;20419;-64
2022/06/09 01:04:20;;;;;;;5.03;3.15;;;;;;;;;;5111796;27;20491;-64
2022/06/09 01:06:49;;;;;;;5.78;3.42;;;;;;;;;;5110545;28;20050;-67
2022/06/09 01:09:20;;;;;;;8.00;3.50;;;;;;;;;;5109665;28;20020;-66
2022/06/09 01:11:50;;;;;;;6.68;3.13;;;;;;;;;;5109669;28;20510;-66
2022/06/09 01:14:17;;;;;;;7.93;3.78;;;;;;;;;;5110347;28;20035;-64
2022/06/09 01:18:10;;;;;;;5.93;3.08;;;;;;;;;;5070769;28;20513;-66
2022/06/09 01:21:02;;;;;;;7.03;3.40;;;;;;;;;;5070274;28;20423;-67
2022/06/09 01:23:37;;;;;;;5.68;2.70;;;;;;;;;;5039856;28;20036;-66
2022/06/09 01:27:07;;;;;;;8.20;3.78;;;;;;;;;;5110949;27;20392;-66
2022/06/09 01:29:33;;;;;;;6.47;3.65;;;;;;;;;;5111033;28;20020;-64
2022/06/09 01:32:05;;;;;;;4.65;2.17;;;;;;;;;;5111149;28;20024;-64
2022/06/09 01:35:37;;;;;;;8.43;3.47;;;;;;;;;;5111120;27;20392;-64
2022/06/09 01:38:25;;;;;;;6.95;3.45;;;;;;;;;;5111538;27;20423;-64
2022/06/09 01:43:18;;;;;;;8.45;4.30;;;;;;;;;;5111471;27;20418;-65
2022/06/09 01:46:04;;;;;;;7.30;3.95;;;;;;;;;;5111102;28;20115;-65
2022/06/09 01:48:30;;;;;;;7.18;3.47;;;;;;;;;;5110763;28;20023;-65
2022/06/09 01:54:46;;;;;;;7.15;3.42;;;;;;;;;;5110801;27;20430;-67
2022/06/09 01:57:58;;;;;;;8.90;4.15;;;;;;;;;;5111432;27;20393;-65
2022/06/09 02:01:55;;;;;;;7.00;3.88;;;;;;;;;;5111193;27;20477;-65
2022/06/09 02:04:23;;;;;;;5.95;3.45;;;;;;;;;;5110979;28;20073;-65
2022/06/09 02:06:51;;;;;;;11.02;3.63;;;;;;;;;;5109657;28;20377;-64
2022/06/09 02:10:30;;;;;;;8.80;3.72;;;;;;;;;;5110649;27;20400;-64
2022/06/09 02:13:00;;;;;;;6.90;3.33;;;;;;;;;;5111045;28;20028;-65
2022/06/09 02:15:36;;;;;;;5.70;3.05;;;;;;;;;;5110612;28;20361;-64
2022/06/09 02:19:00;;;;;;;7.25;3.33;;;;;;;;;;5111147;27;20392;-65
2022/06/09 02:22:38;;;;;;;7.00;4.32;;;;;;;;;;5070836;28;20414;-65
2022/06/09 02:25:04;;;;;;;8.45;4.15;;;;;;;;;;5052517;28;20499;-65
2022/06/09 02:27:55;;;;;;;7.82;3.78;;;;;;;;;;5111092;27;20385;-65
2022/06/09 02:30:21;;;;;;;9.52;4.50;;;;;;;;;;5110663;28;20573;-65
2022/06/09 02:33:14;;;;;;;7.20;3.65;;;;;;;;;;5111513;27;20422;-66
2022/06/09 02:35:41;;;;;;;9.52;3.78;;;;;;;;;;5111224;28;20020;-66
2022/06/09 02:38:08;;;;;;;6.57;3.90;;;;;;;;;;5110537;28;20024;-65
2022/06/09 02:40:34;;;;;;;6.45;3.40;;;;;;;;;;5110892;28;20027;-65
2022/06/09 02:43:03;;;;;;;6.65;3.70;;;;;;;;;;5109564;28;20028;-65
2022/06/09 02:46:33;;;;;;;8.65;3.17;;;;;;;;;;5111793;27;20423;-66
2022/06/09 02:49:00;;;;;;;5.90;3.33;;;;;;;;;;5110970;28;20028;-64
2022/06/09 02:55:17;;;;;;;8.73;3.78;;;;;;;;;;5070890;28;20573;-66
2022/06/09 02:57:43;;;;;;;7.57;3.97;;;;;;;;;;5068745;28;20033;-65
2022/06/09 03:00:12;;;;;;;6.63;3.70;;;;;;;;;;5070415;28;20382;-65
2022/06/09 03:05:09;;;;;;;7.35;4.00;;;;;;;;;;5111088;27;20392;-64
2022/06/09 03:07:36;;;;;;;6.07;3.22;;;;;;;;;;5111065;28;20028;-65
2022/06/09 03:10:22;;;;;;;6.38;3.08;;;;;;;;;;5111834;27;20377;-64
2022/06/09 03:12:49;;;;;;;7.30;3.72;;;;;;;;;;5110619;28;20028;-64
2022/06/09 03:15:16;;;;;;;7.50;3.50;;;;;;;;;;5110927;28;20016;-64
2022/06/09 03:17:42;;;;;;;4.82;2.65;;;;;;;;;;5111178;28;20480;-64
2022/06/09 03:21:50;;;;;;;4.35;2.75;;;;;;;;;;5111092;27;20405;-66
2022/06/09 03:24:42;;;;;;;7.22;3.08;;;;;;;;;;5111267;27;20414;-66
2022/06/09 03:27:09;;;;;;;7.13;2.55;;;;;;;;;;5110739;28;20032;-66
2022/06/09 03:29:35;;;;;;;8.23;3.20;;;;;;;;;;5110985;28;20027;-66
2022/06/09 03:33:10;;;;;;;7.07;3.42;;;;;;;;;;5111216;27;20477;-65
2022/06/09 03:35:36;;;;;;;5.53;3.30;;;;;;;;;;5111048;28;20027;-64
2022/06/09 03:40:24;;;;;;;5.80;3.10;;;;;;;;;;5111146;27;20422;-64
2022/06/09 03:43:33;;;;;;;6.03;3.13;;;;;;;;;;5152714;27;20118;-66
2022/06/09 03:45:59;;;;;;;9.88;3.63;;;;;;;;;;5152182;27;20079;-66
2022/06/09 03:48:25;;;;;;;8.05;3.67;;;;;;;;;;5151607;27;20463;-64
2022/06/09 03:50:51;;;;;;;6.05;3.25;;;;;;;;;;5152219;27;20475;-64
2022/06/09 03:53:18;;;;;;;4.63;2.92;;;;;;;;;;5152001;27;20018;-65
2022/06/09 03:55:44;;;;;;;5.88;3.20;;;;;;;;;;5151651;27;20378;-65
2022/06/09 04:01:13;;;;;;;5.05;3.15;;;;;;;;;;5110484;27;20385;-64
2022/06/09 04:05:05;;;;;;;6.00;3.03;;;;;;;;;;5111070;27;20465;-64
2022/06/09 04:07:31;;;;;;;5.93;3.45;;;;;;;;;;5110345;28;20383;-65
2022/06/09 04:13:50;;;;;;;8.40;3.55;;;;;;;;;;5111218;27;20458;-64
2022/06/09 04:16:27;;;;;;;8.93;3.65;;;;;;;;;;5110548;28;20534;-64
2022/06/09 04:20:03;;;;;;;6.35;3.20;;;;;;;;;;5111621;27;20392;-64
2022/06/09 04:22:29;;;;;;;5.10;3.08;;;;;;;;;;5110518;28;20028;-64
2022/06/09 04:24:56;;;;;;;5.85;3.20;;;;;;;;;;5110829;28;20027;-64
2022/06/09 04:28:02;;;;;;;5.32;3.22;;;;;;;;;;5111005;27;21081;-64
2022/06/09 04:33:05;;;;;;;6.97;3.97;;;;;;;;;;5111289;27;20734;-63
2022/06/09 04:35:31;;;;;;;7.03;3.50;;;;;;;;;;5110912;28;20103;-64
2022/06/09 04:38:00;;;;;;;7.72;3.75;;;;;;;;;;5110506;28;20047;-64
2022/06/09 04:42:37;;;;;;;6.80;3.08;;;;;;;;;;5173077;27;20739;-65
2022/06/09 04:45:03;;;;;;;6.88;3.35;;;;;;;;;;5151702;27;20099;-64
2022/06/09 04:47:30;;;;;;;7.10;3.63;;;;;;;;;;5151995;27;20101;-64
2022/06/09 04:49:56;;;;;;;5.72;3.30;;;;;;;;;;5152147;27;20563;-64
2022/06/09 04:52:22;;;;;;;10.80;3.67;;;;;;;;;;5151447;27;20030;-65
2022/06/09 04:58:51;;;;;;;6.43;3.58;;;;;;;;;;5110699;27;20389;-66
2022/06/09 05:03:11;;;;;;;8.57;3.67;;;;;;;;;;5111285;27;20405;-66
2022/06/09 05:07:30;;;;;;;7.22;3.28;;;;;;;;;;5111014;27;20420;-66
2022/06/09 05:09:56;;;;;;;5.90;3.15;;;;;;;;;;5110311;28;20032;-63
2022/06/09 05:12:22;;;;;;;10.90;4.30;;;;;;;;;;5109336;28;20089;-64
2022/06/09 05:15:55;;;;;;;5.78;3.65;;;;;;;;;;5106131;27;20749;-64
2022/06/09 05:20:07;;;;;;;6.70;3.30;;;;;;;;;;5108028;27;20528;-65
2022/06/09 05:22:35;;;;;;;6.18;3.10;;;;;;;;;;5108936;28;20020;-65
2022/06/09 05:25:01;;;;;;;7.60;4.25;;;;;;;;;;5109030;28;20061;-64
2022/06/09 05:30:45;;;;;;;6.15;3.67;;;;;;;;;;5109058;27;20397;-63
2022/06/09 05:35:06;;;;;;;7.38;4.40;;;;;;;;;;5107210;27;20388;-65
2022/06/09 05:45:47;;;;;;;6.65;3.42;;;;;;;;;;5110082;28;20047;-65
2022/06/09 05:48:15;;;;;;;7.28;3.45;;;;;;;;;;5110490;28;20024;-62
2022/06/09 05:50:41;;;;;;;8.50;4.20;;;;;;;;;;5112413;28;20023;-64
2022/06/09 05:53:07;;;;;;;8.30;4.15;;;;;;;;;;5126915;28;20035;-65
2022/06/09 05:55:33;;;;;;;7.22;4.07;;;;;;;;;;5112194;28;20024;-64
2022/06/09 05:58:59;;;;;;;8.25;4.00;;;;;;;;;;5054224;27;21058;-65
2022/06/09 06:01:37;;;;;;;7.80;4.10;;;;;;;;;;5148628;27;20386;-64
2022/06/09 06:04:05;;;;;;;9.45;4.32;;;;;;;;;;5147590;27;20064;-63
2022/06/09 06:06:34;;;;;;;7.32;3.85;;;;;;;;;;5137716;27;20541;-64
2022/06/09 06:09:03;;;;;;;8.40;3.45;;;;;;;;;;5131347;27;20383;-63
2022/06/09 06:11:29;;;;;;;6.03;3.75;;;;;;;;;;5137821;27;20053;-64
2022/06/09 06:13:55;;;;;;;6.50;3.45;;;;;;;;;;5144976;27;20066;-63
2022/06/09 06:16:22;;;;;;;9.60;4.05;;;;;;;;;;5136015;27;20023;-64
2022/06/09 06:18:48;;;;;;;6.93;4.05;;;;;;;;;;5146043;27;20027;-65
2022/06/09 06:21:15;;;;;;;9.18;4.45;;;;;;;;;;5146729;27;20479;-62
2022/06/09 06:25:20;;;;;;;6.50;3.75;;;;;;;;;;5167150;27;20641;-63
2022/06/09 06:29:27;;;;;;;7.50;3.70;;;;;;;;;;5104398;27;20397;-63
2022/06/09 06:31:53;;;;;;;7.68;3.60;;;;;;;;;;5103733;28;20493;-63
2022/06/09 06:34:20;;;;;;;6.80;3.35;;;;;;;;;;5104328;28;20038;-63
2022/06/09 06:37:43;;;;;;;6.45;3.10;;;;;;;;;;5105719;27;20449;-63
2022/06/09 06:40:13;;;;;;;6.15;2.97;;;;;;;;;;5106624;28;20028;-62
2022/06/09 06:42:39;;;;;;;5.43;3.00;;;;;;;;;;5107574;28;20094;-62
2022/06/09 06:45:05;;;;;;;6.00;3.10;;;;;;;;;;5108254;28;20046;-62
2022/06/09 06:47:47;;;;;;;6.03;3.85;;;;;;;;;;5108755;27;20400;-63
2022/06/09 06:50:14;;;;;;;5.13;3.55;;;;;;;;;;5088981;28;20032;-65
2022/06/09 06:52:48;;;;;;;6.32;3.60;;;;;;;;;;5099407;27;20481;-66
2022/06/09 06:55:16;;;;;;;7.75;3.75;;;;;;;;;;5093898;28;20431;-65
2022/06/09 06:57:42;;;;;;;5.07;2.85;;;;;;;;;;5088400;28;20779;-67
2022/06/09 07:00:10;;;;;;;6.00;3.08;;;;;;;;;;5094247;28;20021;-68
2022/06/09 07:02:36;;;;;;;5.45;3.38;;;;;;;;;;5093803;28;20031;-67
2022/06/09 07:05:02;;;;;;;7.25;3.15;;;;;;;;;;5099934;28;20039;-66
2022/06/09 07:07:30;;;;;;;6.10;2.58;;;;;;;;;;5099095;28;20089;-67
2022/06/09 07:09:56;;;;;;;4.80;2.60;;;;;;;;;;5107289;28;20024;-67
2022/06/09 07:12:22;;;;;;;6.32;3.40;;;;;;;;;;5094378;28;20082;-65
2022/06/09 07:14:48;;;;;;;5.53;3.00;;;;;;;;;;5089045;28;20119;-66
2022/06/09 07:17:14;;;;;;;6.15;3.70;;;;;;;;;;5089236;28;20032;-66
2022/06/09 07:19:41;;;;;;;7.30;4.05;;;;;;;;;;5088067;28;20523;-67
2022/06/09 07:23:22;;;;;;;6.97;3.97;;;;;;;;;;5103586;27;20404;-66
2022/06/09 07:25:48;;;;;;;6.45;4.20;;;;;;;;;;5106515;28;20028;-66
2022/06/09 07:28:14;;;;;;;7.25;3.75;;;;;;;;;;5107714;28;20020;-66
2022/06/09 07:30:41;;;;;;;7.35;4.03;;;;;;;;;;5110572;28;20023;-65
2022/06/09 07:34:50;;;;;;;8.18;4.57;;;;;;;;;;5110253;27;20926;-66
2022/06/09 07:37:16;;;;;;;6.95;4.55;;;;;;;;;;5108649;28;20106;-68
2022/06/09 07:39:43;;;;;;;6.53;4.05;;;;;;;;;;5101874;28;20023;-68
2022/06/09 07:42:09;;;;;;;6.75;3.90;;;;;;;;;;5104977;28;20024;-67
2022/06/09 07:48:07;;;;;;;6.05;3.25;;;;;;;;;;5085201;28;20417;-64
2022/06/09 07:50:34;;;;;;;5.53;2.97;;;;;;;;;;5086223;28;20097;-64
2022/06/09 07:53:01;;;;;;;4.85;2.40;;;;;;;;;;5084723;28;20024;-63
2022/06/09 07:55:27;;;;;;;3.70;2.78;;;;;;;;;;5088087;28;20073;-65
2022/06/09 07:57:54;;;;;;;3.97;2.40;;;;;;;;;;5089249;28;20419;-62
2022/06/09 08:04:40;;;;;;;4.65;2.58;;;;;;;;;;5110083;27;20388;-61
2022/06/09 08:07:16;;;;;;;6.97;2.88;;;;;;;;;;5108859;27;20645;-62
2022/06/09 08:09:43;;;;;;;4.68;2.72;;;;;;;;;;5110107;28;20347;-62
2022/06/09 08:13:03;;;;;;;4.63;2.70;;;;;;;;;;5100229;27;20394;-63
2022/06/09 08:15:30;;;;;;;6.93;2.83;;;;;;;;;;5089680;28;20034;-65
2022/06/09 08:17:57;;;;;;;10.48;2.63;;;;;;;;;;5088970;28;20032;-62
2022/06/09 08:20:25;;;;;;;4.35;2.70;;;;;;;;;;5089988;28;20024;-64
2022/06/09 08:24:54;;;;;;;4.60;2.63;;;;;;;;;;5110725;27;20418;-65
2022/06/09 08:28:27;;;;;;;6.72;3.35;;;;;;;;;;5110475;27;20446;-64
2022/06/09 08:30:54;;;;;;;4.43;2.83;;;;;;;;;;5110705;28;20028;-64
2022/06/09 08:33:21;;;;;;;5.28;2.60;;;;;;;;;;5110042;28;20435;-64
2022/06/09 08:35:48;;;;;;;6.22;3.08;;;;;;;;;;5108974;28;20032;-63
2022/06/09 08:39:34;;;;;;;5.90;3.28;;;;;;;;;;5109581;27;20423;-64
2022/06/09 08:43:46;;;;;;;5.93;3.55;;;;;;;;;;5108307;27;20400;-64
2022/06/09 08:46:24;;;;;;;4.00;2.78;;;;;;;;;;5108765;28;20028;-65
2022/06/09 08:48:52;;;;;;;5.43;3.15;;;;;;;;;;5106241;28;20035;-65
2022/06/09 08:51:29;;;;;;;4.53;2.65;;;;;;;;;;5108262;28;20419;-65
2022/06/09 08:54:37;;;;;;;5.82;2.75;;;;;;;;;;5068004;28;21149;-66
2022/06/09 08:57:06;;;;;;;5.53;3.05;;;;;;;;;;5067935;28;20079;-66
2022/06/09 09:00:28;;;;;;;4.95;2.90;;;;;;;;;;5068118;28;20943;-64
2022/06/09 09:03:03;;;;;;;7.03;3.22;;;;;;;;;;5066311;28;20021;-64
2022/06/09 09:05:33;;;;;;;6.57;3.25;;;;;;;;;;5066155;28;20032;-64
2022/06/09 09:08:01;;;;;;;5.38;3.10;;;;;;;;;;5067400;28;20029;-65
2022/06/09 09:10:58;;;;;;;3.75;2.60;;;;;;;;;;5109849;27;20401;-66
2022/06/09 09:13:31;;;;;;;3.75;2.60;;;;;;;;;;5108978;28;20039;-66
2022/06/09 09:19:40;;;;;;;5.47;2.53;;;;;;;;;;5069506;28;20399;-64
2022/06/09 09:22:09;;;;;;;5.03;2.47;;;;;;;;;;5067350;28;20025;-63
2022/06/09 09:24:54;;;;;;;5.47;2.97;;;;;;;;;;5068143;28;20025;-64
2022/06/09 09:27:23;;;;;;;3.70;2.30;;;;;;;;;;5050106;28;20017;-64
2022/06/09 09:29:58;;;;;;;3.08;2.22;;;;;;;;;;5068920;28;20074;-64
2022/06/09 09:32:27;;;;;;;8.07;2.58;;;;;;;;;;5068514;28;20477;-64
2022/06/09 09:34:53;;;;;;;7.15;2.85;;;;;;;;;;5068852;28;20032;-63
2022/06/09 09:37:22;;;;;;;5.78;2.80;;;;;;;;;;5068582;28;20027;-63
2022/06/09 09:42:13;;;;;;;6.80;3.45;;;;;;;;;;5110428;27;20458;-64
2022/06/09 09:44:40;;;;;;;4.63;2.83;;;;;;;;;;5110748;28;20415;-64
2022/06/09 09:47:07;;;;;;;4.28;2.80;;;;;;;;;;5110028;28;20061;-64
2022/06/09 09:49:42;;;;;;;3.83;2.30;;;;;;;;;;5109234;28;20035;-64
2022/06/09 09:52:29;;;;;;;4.85;2.58;;;;;;;;;;5109691;28;20048;-66
2022/06/09 09:54:55;;;;;;;5.70;2.72;;;;;;;;;;5108938;28;20476;-64
2022/06/09 09:57:22;;;;;;;6.45;2.70;;;;;;;;;;5109268;28;20046;-64
2022/06/09 09:59:51;;;;;;;4.10;2.63;;;;;;;;;;5111772;28;20788;-64
2022/06/09 10:08:37;;;;;;;4.50;2.40;;;;;;;;;;5099873;28;20039;-65
2022/06/09 10:11:53;;;;;;;4.15;2.70;;;;;;;;;;5109299;28;20020;-66
2022/06/09 10:13:51;;;;;;;5.95;3.15;;;;;;;;;;5108917;28;20032;-66
2022/06/09 10:16:18;;;;;;;6.53;3.10;;;;;;;;;;5110181;28;20024;-69
2022/06/09 10:18:45;;;;;;;5.43;2.80;;;;;;;;;;5106730;28;20023;-63
2022/06/09 10:21:13;;;;;;;4.55;2.65;;;;;;;;;;5106320;28;20115;-67
2022/06/09 10:24:00;;;;;;;5.22;2.72;;;;;;;;;;5105619;28;20476;-67
2022/06/09 10:26:29;;;;;;;4.50;2.60;;;;;;;;;;5108401;28;20110;-68
2022/06/09 10:28:58;;;;;;;4.75;2.50;;;;;;;;;;5108052;28;20394;-67
2022/06/09 10:31:38;;;;;;;5.93;2.60;;;;;;;;;;5108056;28;20091;-66
2022/06/09 10:34:10;;;;;;;6.10;2.90;;;;;;;;;;5109837;28;20472;-67
2022/06/09 10:36:37;;;;;;;4.25;2.40;;;;;;;;;;5109582;28;20031;-67
2022/06/09 10:39:12;;;;;;;4.10;2.38;;;;;;;;;;5109540;28;20030;-67
2022/06/09 10:41:42;;;;;;;8.95;3.10;;;;;;;;;;5107746;28;20048;-67
2022/06/09 10:44:26;;;;;;;4.50;2.55;;;;;;;;;;5108911;28;20020;-67
2022/06/09 10:55:37;;;;;;;6.07;2.40;;;;;;;;;;5093792;28;20028;-65
2022/06/09 10:58:26;;;;;;;4.32;2.33;;;;;;;;;;5095482;28;20417;-64
2022/06/09 11:00:52;;;;;;;5.18;2.55;;;;;;;;;;5095448;28;20032;-64
2022/06/09 11:03:21;;;;;;;6.35;2.92;;;;;;;;;;5093817;28;20056;-63
2022/06/09 11:05:53;;;;;;;5.50;2.50;;;;;;;;;;5094273;28;20024;-64
2022/06/09 11:08:30;;;;;;;3.95;2.40;;;;;;;;;;5094198;28;20031;-64
2022/06/09 11:10:56;;;;;;;5.43;2.08;;;;;;;;;;5093931;28;20099;-65
2022/06/09 11:13:28;;;;;;;10.50;2.20;;;;;;;;;;5094218;28;20077;-65
2022/06/09 11:16:12;;;;;;;4.25;1.95;;;;;;;;;;5094318;28;20472;-65
2022/06/09 11:18:38;;;;;;;3.58;1.88;;;;;;;;;;5094952;28;20030;-65
2022/06/09 11:21:22;;;;;;;3.97;1.88;;;;;;;;;;5093249;28;20387;-64
2022/06/09 11:24:07;;;;;;;4.95;2.03;;;;;;;;;;5093535;28;20031;-64
2022/06/09 11:26:54;;;;;;;4.18;2.08;;;;;;;;;;5093636;28;20020;-65
2022/06/09 11:29:32;;;;;;;5.88;1.70;;;;;;;;;;5094937;28;20476;-66
2022/06/09 11:32:12;;;;;;;3.08;1.80;;;;;;;;;;5094661;28;20024;-65
2022/06/09 11:34:47;;;;;;;4.43;1.73;;;;;;;;;;5095084;28;20423;-65
2022/06/09 11:37:18;;;;;;;4.63;2.08;;;;;;;;;;5095240;28;20073;-65
2022/06/09 11:39:50;;;;;;;3.80;1.90;;;;;;;;;;5094789;28;20044;-65
2022/06/09 11:42:35;;;;;;;4.63;2.10;;;;;;;;;;5095483;28;20075;-65
2022/06/09 11:45:12;;;;;;;5.28;2.10;;;;;;;;;;5094878;28;20016;-66
2022/06/09 11:47:39;;;;;;;3.53;2.08;;;;;;;;;;5093964;28;20046;-65
2022/06/09 11:50:07;;;;;;;3.20;2.08;;;;;;;;;;5095042;28;20035;-65
2022/06/09 11:52:41;;;;;;;3.05;1.80;;;;;;;;;;5094614;28;20028;-64
2022/06/09 11:55:07;;;;;;;4.53;2.40;;;;;;;;;;5094940;28;20024;-65
2022/06/09 11:57:50;;;;;;;5.68;2.42;;;;;;;;;;5095131;28;20020;-65
2022/06/09 12:00:21;;;;;;;3.35;1.88;;;;;;;;;;5094686;28;20097;-65
2022/06/09 12:02:48;;;;;;;4.35;2.10;;;;;;;;;;5094447;28;20403;-65
2022/06/09 12:05:21;;;;;;;4.20;2.17;;;;;;;;;;5094164;28;20031;-65
2022/06/09 12:08:06;;;;;;;4.13;1.63;;;;;;;;;;5094871;28;20396;-65
2022/06/09 12:10:35;;;;;;;3.05;1.80;;;;;;;;;;5094773;28;20480;-65
2022/06/09 12:13:05;;;;;;;3.95;2.08;;;;;;;;;;5094763;28;20460;-65
2022/06/09 12:15:32;;;;;;;2.63;1.58;;;;;;;;;;5095149;28;20457;-65
2022/06/09 12:18:08;;;;;;;3.38;1.52;;;;;;;;;;5094658;28;20038;-65
2022/06/09 12:20:40;;;;;;;3.72;1.58;;;;;;;;;;5094084;28;20034;-65
2022/06/09 12:23:24;;;;;;;2.97;1.70;;;;;;;;;;5094521;28;20027;-65
2022/06/09 12:26:09;;;;;;;3.28;1.80;;;;;;;;;;5094520;28;20484;-65
2022/06/09 12:28:54;;;;;;;3.63;1.48;;;;;;;;;;5094183;28;20056;-65
2022/06/09 12:31:30;;;;;;;3.70;1.40;;;;;;;;;;5094397;28;20024;-65
2022/06/09 12:34:11;;;;;;;3.28;1.70;;;;;;;;;;5094372;28;20065;-65
2022/06/09 12:36:40;;;;;;;2.45;1.55;;;;;;;;;;5094549;28;20028;-65
2022/06/09 12:39:16;;;;;;;4.22;1.67;;;;;;;;;;5093065;28;20024;-65
2022/06/09 12:41:43;;;;;;;3.42;1.42;;;;;;;;;;5093613;28;20063;-64
2022/06/09 12:44:16;;;;;;;3.72;2.00;;;;;;;;;;5094208;28;20400;-65
2022/06/09 12:46:42;;;;;;;3.30;1.52;;;;;;;;;;5094171;28;20024;-65
2022/06/09 12:49:16;;;;;;;2.00;1.40;;;;;;;;;;5092427;28;20028;-65
2022/06/09 12:51:42;;;;;;;4.00;1.73;;;;;;;;;;5092285;28;20028;-64
2022/06/09 12:54:19;;;;;;;2.55;1.48;;;;;;;;;;5093895;28;20031;-65
2022/06/09 12:57:05;;;;;;;2.38;1.55;;;;;;;;;;5093644;28;20067;-64
2022/06/09 12:59:36;;;;;;;2.00;1.20;;;;;;;;;;5093693;28;20025;-65
2022/06/09 13:02:18;;;;;;;2.95;1.58;;;;;;;;;;5093901;28;20365;-64
2022/06/09 13:04:44;;;;;;;;;;;;;;;;;;5093965;28;20027;-64
2022/06/09 13:07:19;;;;;;;3.47;1.27;;;;;;;;;;5093702;28;19904;-64
2022/06/09 13:09:58;;;;;;;2.00;1.40;;;;;;;;;;5093535;28;20412;-64
2022/06/09 13:15:21;;;;;;;2.72;1.58;;;;;;;;;;5093654;28;20392;-64
2022/06/09 13:17:49;;;;;;;5.07;1.60;;;;;;;;;;5093224;28;20496;-64
2022/06/09 13:20:17;;;;;;;3.85;1.38;;;;;;;;;;5093558;28;20111;-64
2022/06/09 13:22:44;;;;;;;2.55;1.60;;;;;;;;;;5093523;28;20024;-64
2022/06/09 13:25:24;;;;;;;3.03;1.70;;;;;;;;;;5093209;28;20104;-64
2022/06/09 13:27:51;;;;;;;4.47;1.65;;;;;;;;;;5093937;28;20054;-64
2022/06/09 13:30:17;;;;;;;2.88;1.63;;;;;;;;;;5092195;28;20066;-64
2022/06/09 13:32:46;;;;;;;2.53;1.40;;;;;;;;;;5091766;28;20028;-64
2022/06/09 13:35:27;;;;;;;4.03;1.60;;;;;;;;;;5093447;28;20031;-65
2022/06/09 13:38:01;;;;;;;4.93;2.30;;;;;;;;;;5093178;28;20038;-65
2022/06/09 13:40:31;;;;;;;6.10;2.03;;;;;;;;;;5093115;28;20040;-65
2022/06/09 13:42:59;;;;;;;4.13;1.80;;;;;;;;;;5093640;28;20069;-64
2022/06/09 13:45:27;;;;;;;3.03;1.67;;;;;;;;;;5093008;28;20017;-65
2022/06/09 13:48:06;;;;;;;3.78;1.85;;;;;;;;;;5093038;28;20020;-65
2022/06/09 13:50:38;;;;;;;3.33;1.83;;;;;;;;;;5093469;28;20372;-65
2022/06/09 13:53:16;;;;;;;4.78;2.03;;;;;;;;;;5092903;28;20016;-65
2022/06/09 13:55:42;;;;;;;3.40;2.05;;;;;;;;;;5093201;28;20017;-65
2022/06/09 13:58:10;;;;;;;3.80;1.75;;;;;;;;;;5093303;28;20036;-65
2022/06/09 14:00:41;;;;;;;6.07;2.30;;;;;;;;;;5092759;28;20028;-65
2022/06/09 14:03:12;;;;;;;5.40;2.90;;;;;;;;;;5093428;28;20074;-65
2022/06/09 14:05:40;;;;;;;3.97;2.20;;;;;;;;;;5092841;28;20043;-65
2022/06/09 14:08:06;;;;;;;8.18;2.03;;;;;;;;;;5091789;28;20024;-65
2022/06/09 14:10:33;;;;;;;4.68;2.20;;;;;;;;;;5093109;28;20027;-65
2022/06/09 14:12:59;;;;;;;3.63;2.35;;;;;;;;;;5093109;28;20028;-67
2022/06/09 14:15:26;;;;;;;6.10;2.67;;;;;;;;;;5093100;28;20028;-65
2022/06/09 14:17:54;;;;;;;4.03;2.10;;;;;;;;;;5093010;28;20384;-65
2022/06/09 14:20:21;;;;;;;3.75;2.20;;;;;;;;;;5092396;28;20028;-65
2022/06/09 14:22:48;;;;;;;5.50;2.20;;;;;;;;;;5092960;28;20020;-65
2022/06/09 14:25:14;;;;;;;3.45;2.10;;;;;;;;;;5092940;28;20077;-64
2022/06/09 14:27:41;;;;;;;3.45;2.00;;;;;;;;;;5094502;28;20028;-65
2022/06/09 14:30:07;;;;;;;6.85;3.03;;;;;;;;;;5095399;28;20028;-64
2022/06/09 14:32:35;;;;;;;8.30;3.50;;;;;;;;;;5096533;28;20032;-64
2022/06/09 14:35:02;;;;;;;6.43;2.80;;;;;;;;;;5096200;28;20016;-64
2022/06/09 14:37:28;;;;;;;5.22;2.60;;;;;;;;;;5095289;28;20023;-63
2022/06/09 14:39:54;;;;;;;5.15;2.80;;;;;;;;;;5096244;28;20047;-63
2022/06/09 14:42:21;;;;;;;5.03;2.30;;;;;;;;;;5096212;28;20028;-63
2022/06/09 14:44:48;;;;;;;5.65;2.42;;;;;;;;;;5096320;28;20016;-63
2022/06/09 14:47:16;;;;;;;4.97;2.67;;;;;;;;;;5096459;28;20024;-63
2022/06/09 14:51:52;;;;;;;6.15;2.97;;;;;;;;;;5111322;27;20388;-65
2022/06/09 14:54:20;;;;;;;6.30;2.47;;;;;;;;;;5111227;28;20384;-65
2022/06/09 14:56:46;;;;;;;6.50;3.13;;;;;;;;;;5109410;28;20559;-65
2022/06/09 14:59:15;;;;;;;6.03;2.38;;;;;;;;;;5111036;28;20106;-62
2022/06/09 15:01:41;;;;;;;4.05;2.25;;;;;;;;;;5111012;28;20026;-63
2022/06/09 15:05:01;;;;;;;4.43;2.33;;;;;;;;;;5111136;27;20401;-64
2022/06/09 15:07:27;;;;;;;4.38;2.60;;;;;;;;;;5111117;28;20107;-62
2022/06/09 15:09:54;;;;;;;4.97;2.88;;;;;;;;;;5110760;28;20480;-62
2022/06/09 15:12:20;;;;;;;5.03;2.88;;;;;;;;;;5111211;28;20028;-64
2022/06/09 15:14:46;;;;;;;4.55;2.80;;;;;;;;;;5111062;28;20059;-63
2022/06/09 15:17:13;;;;;;;6.65;3.13;;;;;;;;;;5110534;28;20024;-64
2022/06/09 15:19:39;;;;;;;4.70;3.03;;;;;;;;;;5110976;28;20024;-64
2022/06/09 15:22:05;;;;;;;4.88;3.03;;;;;;;;;;5110774;28;20081;-64
2022/06/09 15:24:31;;;;;;;8.05;3.40;;;;;;;;;;5110296;28;20099;-64
2022/06/09 15:26:58;;;;;;;7.35;3.63;;;;;;;;;;5110761;28;20020;-64
2022/06/09 15:29:24;;;;;;;7.80;3.40;;;;;;;;;;5110712;28;20476;-65
2022/06/09 15:32:35;;;;;;;5.50;3.45;;;;;;;;;;5111318;27;20938;-66
2022/06/09 15:35:01;;;;;;;6.10;2.60;;;;;;;;;;5111093;28;20027;-66
2022/06/09 15:39:59;;;;;;;6.05;3.00;;;;;;;;;;5050611;28;20401;-66
2022/06/09 15:45:20;;;;;;;18.00;4.93;;;;;;;;;;5070240;28;20413;-65
2022/06/09 15:47:46;;;;;;;9.73;3.90;;;;;;;;;;5070489;28;20045;-65
2022/06/09 15:50:57;;;;;;;10.00;4.68;;;;;;;;;;5131584;27;20361;-64
2022/06/09 15:55:11;;;;;;;11.75;4.78;;;;;;;;;;5091096;27;20436;-64
2022/06/09 15:57:37;;;;;;;10.25;5.55;;;;;;;;;;5090791;28;20471;-63
2022/06/09 16:00:09;;;;;;;8.45;4.88;;;;;;;;;;5090314;28;20039;-66
2022/06/09 16:02:35;;;;;;;11.43;4.68;;;;;;;;;;5090648;28;20436;-65
2022/06/09 16:07:21;;;;;;;9.77;5.30;;;;;;;;;;5110696;27;20469;-65
2022/06/09 16:09:48;;;;;;;9.45;5.18;;;;;;;;;;5111021;28;20373;-65
2022/06/09 16:12:14;;;;;;;7.90;4.70;;;;;;;;;;5110649;28;20468;-65
2022/06/09 16:17:16;;;;;;;12.63;6.03;;;;;;;;;;5111183;27;20392;-63
2022/06/09 16:20:39;;;;;;;10.07;5.68;;;;;;;;;;5110868;27;20397;-64
2022/06/09 16:23:06;;;;;;;8.30;5.53;;;;;;;;;;5126701;28;20481;-63
2022/06/09 16:25:32;;;;;;;10.95;5.80;;;;;;;;;;5110884;28;20503;-64
2022/06/09 16:28:44;;;;;;;10.88;6.00;;;;;;;;;;5070456;28;20473;-65
2022/06/09 16:31:10;;;;;;;8.43;4.95;;;;;;;;;;5070484;28;20036;-65
2022/06/09 16:33:36;;;;;;;13.15;5.30;;;;;;;;;;5068603;28;20540;-65
2022/06/09 16:37:37;;;;;;;11.80;5.45;;;;;;;;;;5111315;27;20426;-64
2022/06/09 16:44:15;;;;;;;10.18;5.20;;;;;;;;;;5111168;27;20389;-65
2022/06/09 16:46:41;;;;;;;8.93;5.05;;;;;;;;;;5111130;28;20020;-65
2022/06/09 16:51:10;;;;;;;9.35;4.95;;;;;;;;;;5111262;27;20419;-65
2022/06/09 16:53:36;;;;;;;9.18;5.80;;;;;;;;;;5111075;28;20388;-64
2022/06/09 16:56:26;;;;;;;7.72;4.85;;;;;;;;;;5110806;27;20419;-64
2022/06/09 17:01:07;;;;;;;5.68;3.47;;;;;;;;;;5111400;27;20908;-63
2022/06/09 17:04:16;;;;;;;6.90;4.07;;;;;;;;;;5111276;27;20465;-65
2022/06/09 17:07:44;;;;;;;6.43;3.50;;;;;;;;;;5111422;27;20179;-65
2022/06/09 17:10:31;;;;;;;4.65;3.20;;;;;;;;;;5110841;27;20433;-63
2022/06/09 17:14:09;;;;;;;5.00;2.60;;;;;;;;;;5111445;27;20392;-64
2022/06/09 17:19:56;;;;;;;4.63;2.75;;;;;;;;;;5111455;27;20881;-64
2022/06/09 17:22:22;;;;;;;5.03;3.28;;;;;;;;;;5111295;28;20027;-64
2022/06/09 17:25:40;;;;;;;5.07;2.70;;;;;;;;;;5071048;28;20984;-65
2022/06/09 17:28:06;;;;;;;4.22;2.63;;;;;;;;;;5070581;28;20489;-64
2022/06/09 17:30:34;;;;;;;5.85;3.55;;;;;;;;;;5070153;28;20028;-64
2022/06/09 17:34:42;;;;;;;5.32;3.10;;;;;;;;;;5111330;27;20418;-65
2022/06/09 17:37:09;;;;;;;7.50;3.70;;;;;;;;;;5110869;28;20491;-65
2022/06/09 17:39:35;;;;;;;5.82;3.30;;;;;;;;;;5111167;28;20537;-63
2022/06/09 17:42:01;;;;;;;5.32;3.22;;;;;;;;;;5111229;28;20024;-63
2022/06/09 17:44:27;;;;;;;5.13;3.33;;;;;;;;;;5110593;28;20477;-65
2022/06/09 17:46:53;;;;;;;6.13;3.25;;;;;;;;;;5111045;28;20384;-65
2022/06/09 17:49:31;;;;;;;4.65;3.00;;;;;;;;;;5111581;27;20315;-65
2022/06/09 17:51:57;;;;;;;5.13;3.08;;;;;;;;;;5109652;28;20031;-65